createdAt,value
2016-04-11T15:20:45.758Z,50
2016-04-11T15:21:46.635Z,45
2016-04-11T15:22:46.013Z,55
2016-04-11T15:23:45.829Z,50
2016-04-11T15:24:45.816Z,45
2016-04-11T15:25:45.662Z,55
2016-04-11T15:26:59.524Z,45
2016-04-11T15:27:46.121Z,40
2016-04-11T15:28:46.467Z,45
2016-04-11T15:29:45.579Z,45
2016-04-11T15:30:59.692Z,40
2016-04-11T15:31:45.897Z,40
2016-04-11T15:32:49.259Z,40
2016-04-11T15:33:46.075Z,45
2016-04-11T15:34:45.670Z,45
2016-04-11T15:35:45.533Z,40
2016-04-11T15:36:45.739Z,40
2016-04-11T15:37:45.647Z,40
2016-04-11T15:38:45.931Z,35
2016-04-11T15:39:45.794Z,40
2016-04-11T15:40:45.640Z,55
2016-04-11T15:41:46.175Z,45
2016-04-11T15:42:45.630Z,40
2016-04-11T15:43:46.539Z,50
2016-04-11T15:44:46.042Z,50
2016-04-11T15:45:44.700Z,50
2016-04-11T15:46:48.172Z,45
2016-04-11T15:48:45.458Z,35
2016-04-11T15:49:45.367Z,35
2016-04-11T15:50:46.152Z,35
2016-04-11T15:51:45.951Z,30
2016-04-11T15:52:45.422Z,35
2016-04-11T15:53:47.175Z,30
2016-04-11T15:54:45.771Z,30
2016-04-11T15:55:45.509Z,30
2016-04-11T15:56:46.057Z,30
2016-04-11T15:57:45.593Z,30
2016-04-11T15:58:46.470Z,35
2016-04-11T15:59:45.176Z,35
2016-04-11T16:00:45.412Z,35
2016-04-11T16:01:45.290Z,35
2016-04-11T16:02:45.543Z,35
2016-04-11T16:03:45.233Z,35
2016-04-11T16:04:47.580Z,30
2016-04-11T16:05:45.395Z,30
2016-04-11T16:06:45.195Z,35
2016-04-11T16:07:45.962Z,35
2016-04-11T16:08:44.949Z,40
2016-04-11T16:09:44.547Z,35
2016-04-11T16:10:46.675Z,30
2016-04-11T16:11:44.895Z,30
2016-04-11T16:12:53.944Z,30
2016-04-11T16:13:48.964Z,30
2016-04-11T16:14:45.825Z,35
2016-04-11T16:16:06.624Z,40
2016-04-11T16:16:45.127Z,45
2016-04-11T16:18:45.071Z,40
2016-04-11T16:20:12.744Z,40
2016-04-11T16:20:47.919Z,40
2016-04-11T16:21:47.172Z,50
2016-04-11T16:22:45.082Z,50
2016-04-11T16:23:45.255Z,45
2016-04-11T16:24:45.055Z,45
2016-04-11T16:25:48.261Z,45
2016-04-11T16:27:01.217Z,40
2016-04-11T16:28:45.987Z,30
2016-04-11T16:29:45.897Z,30
2016-04-11T16:30:44.915Z,35
2016-04-11T16:31:45.965Z,35
2016-04-11T16:32:45.327Z,40
2016-04-11T16:33:44.876Z,40
2016-04-11T16:34:57.770Z,45
2016-04-11T16:35:45.569Z,50
2016-04-11T16:36:48.150Z,50
2016-04-11T16:37:48.137Z,50
2016-04-11T16:38:47.546Z,50
2016-04-11T16:39:44.970Z,50
2016-04-11T16:40:44.551Z,45
2016-04-11T16:41:58.476Z,35
2016-04-11T16:42:44.681Z,30
2016-04-11T16:43:45.997Z,35
2016-04-11T16:44:51.000Z,30
2016-04-11T16:45:48.690Z,30
2016-04-11T16:46:58.556Z,30
2016-04-11T16:47:50.214Z,35
2016-04-11T16:48:49.202Z,35
2016-04-11T16:49:58.845Z,30
2016-04-11T16:50:44.800Z,25
2016-04-11T16:51:45.569Z,20
2016-04-11T16:52:44.338Z,20
2016-04-11T16:53:44.434Z,20
2016-04-11T16:54:46.265Z,15
2016-04-11T16:55:44.705Z,15
2016-04-11T16:56:44.864Z,15
2016-04-11T16:57:47.273Z,15
2016-04-11T16:58:44.869Z,15
2016-04-11T16:59:44.341Z,15
2016-04-11T17:00:58.375Z,15
2016-04-11T17:01:45.502Z,15
2016-04-11T17:02:59.411Z,15
2016-04-11T17:03:45.571Z,15
2016-04-11T17:04:44.198Z,15
2016-04-11T17:05:44.966Z,15
2016-04-11T17:06:47.219Z,15
2016-04-11T17:07:58.363Z,15
2016-04-11T17:08:44.412Z,15
2016-04-11T17:09:45.040Z,15
2016-04-11T17:10:44.324Z,15
2016-04-11T17:11:44.138Z,10
2016-04-11T17:12:43.876Z,10
2016-04-11T17:13:44.504Z,10
2016-04-11T17:14:43.881Z,10
2016-04-11T17:15:43.993Z,10
2016-04-11T17:16:44.012Z,10
2016-04-11T17:17:45.092Z,10
2016-04-11T17:18:44.111Z,10
2016-04-11T17:19:44.254Z,10
2016-04-11T17:20:42.975Z,10
2016-04-11T17:21:43.823Z,10
2016-04-11T17:22:43.731Z,10
2016-04-11T17:23:44.045Z,10
2016-04-11T17:25:44.332Z,10
2016-04-11T17:26:43.866Z,10
2016-04-11T17:27:43.775Z,10
2016-04-11T17:28:43.653Z,10
2016-04-11T17:29:43.750Z,10
2016-04-11T17:30:45.346Z,5
2016-04-11T17:31:44.239Z,5
2016-04-11T17:32:43.742Z,5
2016-04-11T17:33:44.682Z,5
2016-04-11T17:34:43.544Z,5
2016-04-11T17:36:43.863Z,5
2016-04-11T17:37:44.240Z,5
2016-04-11T17:38:43.446Z,5
2016-04-11T17:39:43.807Z,5
2016-04-11T17:40:43.982Z,5
2016-04-11T17:41:57.485Z,5
2016-04-11T17:42:46.956Z,5
2016-04-11T17:43:43.913Z,5
2016-04-11T17:44:43.337Z,5
2016-04-11T17:45:44.729Z,5
2016-04-11T17:46:43.545Z,5
2016-04-11T17:47:43.439Z,5
2016-04-11T17:48:44.004Z,5
2016-04-11T17:49:43.334Z,5
2016-04-11T17:50:43.416Z,5
2016-04-11T17:51:43.075Z,0
2016-04-11T17:52:43.717Z,0
2016-04-11T17:53:43.033Z,0
2016-04-11T17:54:43.769Z,0
2016-04-11T17:55:57.132Z,0
2016-04-11T17:56:43.759Z,0
2016-04-11T17:57:43.169Z,0
2016-04-11T17:58:43.437Z,0
2016-04-11T17:59:57.814Z,0
2016-04-11T18:00:57.645Z,0
2016-04-11T18:01:43.852Z,0
2016-04-11T18:02:43.760Z,0
2016-04-11T18:03:43.200Z,0
2016-04-11T18:04:56.031Z,0
2016-04-11T18:05:43.472Z,0
2016-04-11T18:06:44.630Z,0
2016-04-11T18:07:43.711Z,0
2016-04-11T18:08:43.367Z,0
2016-04-11T18:09:43.806Z,0
2016-04-11T18:10:43.075Z,0
2016-04-11T18:11:43.655Z,0
2016-04-11T18:12:44.565Z,0
2016-04-11T18:13:44.801Z,0
2016-04-11T18:14:45.257Z,0
2016-04-11T18:15:45.869Z,0
2016-04-11T18:16:45.044Z,0
2016-04-11T18:17:46.140Z,0
2016-04-11T18:18:44.519Z,0
2016-04-11T18:19:44.661Z,0
2016-04-11T18:20:45.195Z,0
2016-04-11T18:21:44.886Z,0
2016-04-11T18:22:45.591Z,0
2016-04-11T18:23:44.844Z,0
2016-04-11T18:24:44.315Z,0
2016-04-11T18:25:46.319Z,0
2016-04-11T18:26:58.680Z,0
2016-04-11T18:27:46.713Z,0
2016-04-11T18:28:48.263Z,0
2016-04-11T18:29:45.032Z,0
2016-04-11T18:30:45.300Z,0
2016-04-11T18:31:44.084Z,0
2016-04-11T18:32:58.337Z,0
2016-04-11T18:33:47.152Z,0
2016-04-11T18:34:46.998Z,0
2016-04-11T18:36:45.534Z,0
2016-04-11T18:38:11.679Z,0
2016-04-11T18:38:44.822Z,0
2016-04-11T18:39:44.137Z,0
2016-04-11T18:40:43.749Z,0
2016-04-11T18:41:44.751Z,0
2016-04-11T18:42:44.817Z,0
2016-04-11T18:43:45.303Z,0
2016-04-11T18:44:44.275Z,0
2016-04-11T18:45:58.481Z,0
2016-04-11T18:46:47.172Z,0
2016-04-11T18:47:45.362Z,0
2016-04-11T18:48:43.928Z,0
2016-04-11T18:49:44.227Z,0
2016-04-11T18:50:44.480Z,0
2016-04-11T18:51:44.201Z,0
2016-04-11T18:52:43.938Z,0
2016-04-11T18:53:43.847Z,0
2016-04-11T18:54:43.630Z,0
2016-04-11T18:55:46.243Z,0
2016-04-11T18:56:46.073Z,0
2016-04-11T18:57:44.404Z,0
2016-04-11T18:58:44.704Z,0
2016-04-11T18:59:44.035Z,0
2016-04-11T19:00:43.866Z,0
2016-04-11T19:02:49.569Z,0
2016-04-11T19:03:43.524Z,0
2016-04-11T19:04:43.277Z,0
2016-04-11T19:05:43.577Z,0
2016-04-11T19:06:43.407Z,0
2016-04-11T19:08:43.810Z,0
2016-04-11T19:09:43.531Z,0
2016-04-11T19:10:43.705Z,0
2016-04-11T19:11:45.927Z,0
2016-04-11T19:12:43.382Z,0
2016-04-11T19:13:46.604Z,0
2016-04-11T19:14:43.670Z,0
2016-04-11T19:15:42.860Z,0
2016-04-11T19:16:42.269Z,0
2016-04-11T19:17:43.428Z,0
2016-04-11T19:18:57.227Z,0
2016-04-11T19:19:43.745Z,0
2016-04-11T19:20:42.904Z,0
2016-04-11T19:21:56.985Z,0
2016-04-11T19:22:43.457Z,0
2016-04-11T19:23:44.070Z,0
2016-04-11T19:24:43.072Z,0
2016-04-11T19:25:43.296Z,0
2016-04-11T19:26:43.713Z,0
2016-04-11T19:27:44.315Z,0
2016-04-11T19:28:51.213Z,0
2016-04-11T19:29:47.826Z,0
2016-04-11T19:30:56.468Z,0
2016-04-11T19:31:43.550Z,0
2016-04-11T19:32:42.348Z,0
2016-04-11T19:33:42.758Z,0
2016-04-11T19:34:43.511Z,0
2016-04-11T19:35:42.389Z,0
2016-04-11T19:36:43.516Z,0
2016-04-11T19:37:42.784Z,0
2016-04-11T19:38:45.053Z,0
2016-04-11T19:39:55.633Z,0
2016-04-11T19:40:42.605Z,0
2016-04-11T19:41:42.998Z,0
2016-04-11T19:42:43.219Z,0
2016-04-11T19:43:45.503Z,0
2016-04-11T19:44:42.975Z,0
2016-04-11T19:45:45.258Z,0
2016-04-11T19:46:43.683Z,0
2016-04-11T19:47:43.311Z,0
2016-04-11T19:48:41.939Z,0
2016-04-11T19:49:43.427Z,0
2016-04-11T19:50:43.694Z,0
2016-04-11T19:51:43.821Z,0
2016-04-11T19:52:42.809Z,0
2016-04-11T19:53:43.030Z,0
2016-04-11T19:54:42.549Z,0
2016-04-11T19:55:45.145Z,0
2016-04-11T19:56:43.163Z,0
2016-04-11T19:57:42.432Z,0
2016-04-11T19:58:43.309Z,0
2016-04-11T19:59:58.062Z,0
2016-04-11T20:00:45.503Z,0
2016-04-11T20:01:42.771Z,0
2016-04-11T20:02:42.773Z,0
2016-04-11T20:03:42.276Z,0
2016-04-11T20:04:42.747Z,0
2016-04-11T20:05:42.798Z,0
2016-04-11T20:06:42.925Z,0
2016-04-11T20:07:42.647Z,0
2016-04-11T20:08:42.636Z,0
2016-04-11T20:09:47.927Z,0
2016-04-11T20:10:42.977Z,0
2016-04-11T20:11:42.511Z,0
2016-04-11T20:12:42.388Z,0
2016-04-11T20:13:45.610Z,0
2016-04-11T20:14:42.082Z,0
2016-04-11T20:15:43.427Z,0
2016-04-11T20:16:43.665Z,0
2016-04-11T20:17:41.979Z,0
2016-04-11T20:18:55.217Z,0
2016-04-11T20:19:42.062Z,0
2016-04-11T20:20:41.769Z,0
2016-04-11T20:21:42.068Z,0
2016-04-11T20:22:43.837Z,0
2016-04-11T20:23:43.699Z,0
2016-04-11T20:24:44.029Z,0
2016-04-11T20:25:41.986Z,0
2016-04-11T20:26:42.817Z,0
2016-04-11T20:27:41.085Z,0
2016-04-11T20:29:54.450Z,0
2016-04-11T20:30:42.812Z,0
2016-04-11T20:31:41.923Z,0
2016-04-11T20:32:41.411Z,0
2016-04-11T20:33:41.928Z,0
2016-04-11T20:34:55.745Z,0
2016-04-11T20:35:40.216Z,0
2016-04-11T20:36:43.452Z,0
2016-04-11T20:37:39.158Z,0
2016-04-11T20:38:39.739Z,0
2016-04-11T20:39:40.133Z,0
2016-04-11T20:40:41.744Z,0
2016-04-11T20:41:40.904Z,0
2016-04-11T20:42:39.702Z,0
2016-04-11T20:43:39.581Z,0
2016-04-11T20:44:40.505Z,0
2016-04-11T20:45:38.946Z,0
2016-04-11T20:46:40.760Z,0
2016-04-11T20:47:40.421Z,0
2016-04-11T20:48:40.829Z,0
2016-04-11T20:49:54.176Z,0
2016-04-11T20:50:41.007Z,0
2016-04-11T20:51:39.852Z,0
2016-04-11T20:52:38.168Z,0
2016-04-11T20:53:39.983Z,0
2016-04-11T20:54:40.235Z,0
2016-04-11T20:55:39.425Z,0
2016-04-11T20:56:40.054Z,0
2016-04-11T20:57:39.572Z,0
2016-04-11T20:58:54.184Z,0
2016-04-11T20:59:40.108Z,0
2016-04-11T21:00:41.096Z,0
2016-04-11T21:01:40.504Z,0
2016-04-11T21:02:38.961Z,0
2016-04-11T21:03:39.681Z,0
2016-04-11T21:04:40.215Z,0
2016-04-11T21:05:41.344Z,0
2016-04-11T21:06:42.190Z,0
2016-04-11T21:07:39.989Z,0
2016-04-11T21:08:42.508Z,0
2016-04-11T21:09:53.713Z,0
2016-04-11T21:10:53.950Z,0
2016-04-11T21:11:40.391Z,0
2016-04-11T21:12:41.222Z,0
2016-04-11T21:13:54.505Z,0
2016-04-11T21:14:53.805Z,0
2016-04-11T21:15:39.871Z,0
2016-04-11T21:16:39.482Z,0
2016-04-11T21:17:39.375Z,0
2016-04-11T21:18:53.596Z,0
2016-04-11T21:19:53.085Z,0
2016-04-11T21:20:42.759Z,0
2016-04-11T21:21:53.807Z,0
2016-04-11T21:22:38.796Z,0
2016-04-11T21:23:38.907Z,0
2016-04-11T21:24:39.051Z,0
2016-04-11T21:25:38.943Z,0
2016-04-11T21:26:38.837Z,0
2016-04-11T21:27:52.730Z,0
2016-04-11T21:28:38.952Z,0
2016-04-11T21:29:40.283Z,0
2016-04-11T21:30:38.878Z,0
2016-04-11T21:31:38.788Z,0
2016-04-11T21:32:40.354Z,0
2016-04-11T21:33:39.512Z,0
2016-04-11T21:34:39.686Z,0
2016-04-11T21:35:38.939Z,0
2016-04-11T21:36:37.566Z,0
2016-04-11T21:37:38.414Z,0
2016-04-11T21:38:39.025Z,0
2016-04-11T21:39:52.919Z,0
2016-04-11T21:40:54.546Z,0
2016-04-11T21:41:40.331Z,0
2016-04-11T21:42:38.739Z,0
2016-04-11T21:43:38.648Z,0
2016-04-11T21:44:38.604Z,0
2016-04-11T21:45:39.483Z,0
2016-04-11T21:46:38.500Z,0
2016-04-11T21:47:39.174Z,0
2016-04-11T21:48:38.568Z,0
2016-04-11T21:49:38.398Z,0
2016-04-11T21:50:38.090Z,0
2016-04-11T21:51:39.060Z,0
2016-04-11T21:52:38.704Z,0
2016-04-11T21:53:38.315Z,0
2016-04-11T21:54:37.929Z,0
2016-04-11T21:55:38.462Z,0
2016-04-11T21:56:38.870Z,0
2016-04-11T21:57:38.108Z,0
2016-04-11T21:58:37.204Z,0
2016-04-11T21:59:37.895Z,0
2016-04-11T22:00:40.741Z,0
2016-04-11T22:01:37.744Z,0
2016-04-11T22:02:37.668Z,0
2016-04-11T22:03:38.420Z,0
2016-04-11T22:04:51.783Z,0
2016-04-11T22:05:39.333Z,0
2016-04-11T22:06:38.523Z,0
2016-04-11T22:07:37.636Z,0
2016-04-11T22:08:38.153Z,0
2016-04-11T22:09:37.094Z,0
2016-04-11T22:10:39.175Z,0
2016-04-11T22:11:38.146Z,0
2016-04-11T22:12:39.008Z,0
2016-04-11T22:13:39.322Z,0
2016-04-11T22:14:37.404Z,0
2016-04-11T22:15:37.737Z,0
2016-04-11T22:16:37.504Z,0
2016-04-11T22:17:38.215Z,0
2016-04-11T22:18:37.453Z,0
2016-04-11T22:19:36.768Z,0
2016-04-11T22:20:37.218Z,0
2016-04-11T22:21:38.034Z,0
2016-04-11T22:22:37.286Z,0
2016-04-11T22:23:37.601Z,0
2016-04-11T22:24:38.151Z,0
2016-04-11T22:25:38.451Z,0
2016-04-11T22:26:37.578Z,0
2016-04-11T22:27:37.316Z,0
2016-04-11T22:28:37.787Z,0
2016-04-11T22:29:37.071Z,0
2016-04-11T22:30:37.042Z,0
2016-04-11T22:31:36.420Z,0
2016-04-11T22:32:36.985Z,0
2016-04-11T22:33:37.238Z,0
2016-04-11T22:34:37.178Z,0
2016-04-11T22:35:36.541Z,0
2016-04-11T22:36:38.164Z,0
2016-04-11T22:37:37.005Z,0
2016-04-11T22:38:38.565Z,0
2016-04-11T22:39:37.735Z,0
2016-04-11T22:40:50.842Z,0
2016-04-11T22:41:37.266Z,0
2016-04-11T22:42:37.003Z,0
2016-04-11T22:43:37.332Z,0
2016-04-11T22:44:37.257Z,0
2016-04-11T22:45:37.338Z,0
2016-04-11T22:46:37.096Z,0
2016-04-11T22:47:37.104Z,0
2016-04-11T22:48:36.909Z,0
2016-04-11T22:49:37.464Z,0
2016-04-11T22:50:37.847Z,0
2016-04-11T22:51:38.289Z,0
2016-04-11T22:53:36.829Z,0
2016-04-11T22:54:39.880Z,0
2016-04-11T22:55:36.745Z,0
2016-04-11T22:56:36.999Z,0
2016-04-11T22:57:38.705Z,0
2016-04-11T22:58:36.817Z,0
2016-04-11T22:59:36.586Z,0
2016-04-11T23:00:36.777Z,0
2016-04-11T23:01:36.655Z,0
2016-04-11T23:02:35.393Z,0
2016-04-11T23:03:36.911Z,0
2016-04-11T23:04:36.477Z,0
2016-04-11T23:05:36.480Z,0
2016-04-11T23:06:36.936Z,0
2016-04-11T23:07:36.564Z,0
2016-04-11T23:08:35.769Z,0
2016-04-11T23:09:36.819Z,0
2016-04-11T23:10:36.416Z,0
2016-04-11T23:11:36.558Z,0
2016-04-11T23:12:36.358Z,0
2016-04-11T23:13:36.377Z,0
2016-04-11T23:14:36.707Z,0
2016-04-11T23:15:50.366Z,0
2016-04-11T23:16:36.557Z,0
2016-04-11T23:17:36.934Z,0
2016-04-11T23:18:36.281Z,0
2016-04-11T23:20:36.193Z,0
2016-04-11T23:21:37.086Z,0
2016-04-11T23:22:36.151Z,0
2016-04-11T23:24:36.360Z,0
2016-04-11T23:25:36.159Z,0
2016-04-11T23:26:35.474Z,0
2016-04-11T23:27:36.212Z,0
2016-04-11T23:28:35.776Z,0
2016-04-11T23:29:35.982Z,0
2016-04-11T23:30:35.939Z,0
2016-04-11T23:31:36.159Z,0
2016-04-11T23:32:35.928Z,0
2016-04-11T23:33:36.759Z,0
2016-04-11T23:34:36.870Z,0
2016-04-11T23:35:35.827Z,0
2016-04-11T23:36:36.064Z,0
2016-04-11T23:37:35.864Z,0
2016-04-11T23:38:35.726Z,0
2016-04-11T23:39:36.072Z,0
2016-04-11T23:40:35.684Z,0
2016-04-11T23:41:35.968Z,0
2016-04-11T23:42:35.658Z,0
2016-04-11T23:43:34.833Z,0
2016-04-11T23:45:36.041Z,0
2016-04-11T23:46:35.825Z,0
2016-04-11T23:47:35.546Z,0
2016-04-11T23:48:35.549Z,0
2016-04-11T23:49:35.645Z,0
2016-04-11T23:50:35.476Z,0
2016-04-11T23:51:36.213Z,0
2016-04-11T23:52:35.435Z,0
2016-04-11T23:53:35.484Z,0
2016-04-11T23:54:35.440Z,0
2016-04-11T23:55:35.318Z,0
2016-04-11T23:56:35.352Z,0
2016-04-11T23:57:35.682Z,0
2016-04-11T23:58:35.389Z,0
2016-04-11T23:59:35.282Z,0
